Flight Track Log - Related Links

Times and Time Zones

All times are in EDT time to prevent confusion due to time zone crossing. See the LXJ542 flight status page for this flight to view local times or setup timezone preferences in your user account.

Time Position Orientation Groundspeed Altitude Reporting Facility
EDT Latitude Longitude Course Direction KTS MPH feet Rate Location/Type
Wed 01:49:22 PM 35.8842 -78.7786 23° Northeast 185 213 1,900  Level Washington Center
Wed 01:50:04 PM 35.9200 -78.7594 23° Northeast 214 246 3,800 3,885 Climbing Washington Center
Wed 01:51:41 PM 36.0450 -78.6953 23° Northeast 372 428 10,900 3,783 Climbing Washington Center
Wed 01:52:41 PM 36.1206 -78.6750 12° North 344 396 13,700 3,521 Climbing Washington Center
Wed 01:53:42 PM 36.2444 -78.6414 12° North 356 410 18,000 3,295 Climbing Washington Center
Wed 01:54:43 PM 36.3622 -78.6125 11° North 397 457 20,400 1,983 Climbing Washington Center
Wed 01:55:43 PM 36.4842 -78.5706 15° North 428 493 22,000 2,256 Climbing Washington Center
Wed 01:56:40 PM 36.6064 -78.5208 18° North 448 516 24,800 2,521 Climbing Washington Center
Wed 01:57:42 PM 36.7308 -78.4686 19° North 463 533 27,000 2,213 Climbing Washington Center
Wed 01:58:42 PM 36.8536 -78.3875 28° Northeast 474 545 29,300 1,900 Climbing Washington Center
Wed 01:59:42 PM 36.9750 -78.2853 34° Northeast 509 586 30,800 1,587 Climbing Washington Center
Wed 02:00:43 PM 37.1025 -78.1803 33° Northeast 529 609 32,500 1,950 Climbing Washington Center
Wed 02:01:42 PM 37.2214 -78.0775 35° Northeast 535 616 34,700 1,916 Climbing Washington Center
Wed 02:02:42 PM 37.3444 -77.9717 34° Northeast 530 610 36,300 1,140 Climbing Washington Center
Wed 02:03:43 PM 37.4636 -77.8628 36° Northeast 530 610 37,000 353 Climbing Washington Center
Wed 02:04:41 PM 37.5844 -77.7564 35° Northeast 525 604 37,000  Level Washington Center
Wed 02:05:41 PM 37.7031 -77.6444 37° Northeast 525 604 37,000  Level Washington Center
Wed 02:06:42 PM 37.8239 -77.5319 36° Northeast 530 610 37,000  Level Washington Center
Wed 02:07:43 PM 37.9425 -77.4192 37° Northeast 535 616 37,000  Level Washington Center
Wed 02:08:42 PM 38.0589 -77.3058 37° Northeast 529 609 37,000  Level Washington Center
Wed 02:09:42 PM 38.1772 -77.1925 37° Northeast 529 609 37,000  Level Washington Center
Wed 02:10:43 PM 38.2975 -77.0733 38° Northeast 541 623 37,000  Level Washington Center
Wed 02:11:41 PM 38.4200 -76.9539 37° Northeast 541 623 37,000  Level Washington Center
Wed 02:12:41 PM 38.5400 -76.8367 37° Northeast 541 623 37,000 -298 Level Washington Center
Wed 02:13:42 PM 38.6600 -76.7217 37° Northeast 536 617 36,400 -1,377 Descending Washington Center
Wed 02:14:43 PM 38.7525 -76.6272 39° Northeast 536 617 34,200 -2,975 Descending Washington Center
Wed 02:15:41 PM 38.8975 -76.4853 37° Northeast 536 617 30,500 -3,153 Descending Washington Center
Wed 02:16:41 PM 38.9942 -76.3903 37° Northeast 536 617 28,000 -3,025 Descending Washington Center
Wed 02:17:42 PM 39.1344 -76.2500 38° Northeast 531 611 24,400 -1,983 Descending Washington Center
Wed 02:18:42 PM 39.2289 -76.1408 42° Northeast 518 596 24,000 -798 Descending Washington Center
Wed 02:21:05 PM 39.5000 -75.8667 38° Northeast 471 542 21,700 -1,693 Descending Philadelphia TRACON
Wed 02:22:04 PM 39.6167 -75.7667 33° Northeast 462 532 18,300 -3,176 Descending Philadelphia TRACON
Wed 02:23:04 PM 39.7167 -75.6833 33° Northeast 443 510 15,400 -2,650 Descending Philadelphia TRACON
Wed 02:24:04 PM 39.8000 -75.6000 38° Northeast 413 475 13,000 -1,200 Descending Philadelphia TRACON
Wed 02:25:04 PM 39.9000 -75.5000 37° Northeast 415 478 13,000  Level Philadelphia TRACON
Wed 02:26:04 PM 40.0000 -75.4167 33° Northeast 414 476 13,000  Level Philadelphia TRACON
Wed 02:27:05 PM 40.0833 -75.3333 37° Northeast 413 475 13,000 -298 Level Philadelphia TRACON
Wed 02:28:05 PM 40.1833 -75.2500 32° Northeast 399 459 12,400 -1,100 Descending Philadelphia TRACON
Wed 02:29:05 PM 40.2500 -75.1667 44° Northeast 335 386 10,800 -1,725 Descending Philadelphia TRACON
Wed 02:30:38 PM 40.3667 -75.0500 37° Northeast 326 375 8,000 -1,765 Descending New York TRACON
Wed 02:31:38 PM 40.4333 -74.9667 44° Northeast 307 353 6,300 -1,700 Descending New York TRACON
Wed 02:32:38 PM 40.4833 -74.8833 52° Northeast 298 343 4,600 -1,150 Descending New York TRACON
Wed 02:33:38 PM 40.5333 -74.8167 45° Northeast 269 310 4,000 -400 Descending New York TRACON
Wed 02:34:38 PM 40.5833 -74.7333 52° Northeast 276 318 3,800 -550 Descending New York TRACON
Wed 02:35:38 PM 40.6500 -74.7000 21° North 277 319 2,900 -400 Descending New York TRACON
Wed 02:36:38 PM 40.7167 -74.6667 21° North 270 311 3,000 50 Climbing New York TRACON
Wed 02:37:38 PM 40.7833 -74.6167 30° Northeast 265 305 3,000  Level New York TRACON
Wed 02:38:38 PM 40.8333 -74.5500 45° Northeast 253 291 3,000  Level New York TRACON
Wed 02:39:38 PM 40.8833 -74.4833 45° Northeast 251 289 3,000  Level New York TRACON
Wed 02:40:38 PM 40.9167 -74.4167 56° Northeast 256 295 3,000  Level New York TRACON
Wed 02:41:38 PM 40.9667 -74.3333 52° Northeast 257 296 3,000 -400 Level New York TRACON
Wed 02:42:38 PM 41.0000 -74.2667 56° Northeast 249 287 2,200 -500 Descending New York TRACON
Wed 02:43:38 PM 41.0167 -74.1833 75° East 231 266 2,000 -100 Descending New York TRACON
Wed 02:44:38 PM 41.0167 -74.1000 90° East 236 272 2,000 -100 Level New York TRACON
Wed 02:45:38 PM 40.9667 -74.0500 143° Southeast 228 262 1,800 -400 Descending New York TRACON
Wed 02:46:38 PM 40.9000 -74.0500 180° South 200 230 1,200 -750 Descending New York TRACON
Wed 02:47:38 PM 40.8667 -74.0667 201° Southwest 131 151 300 -900 Descending New York TRACON
Wed 02:49:00 PM 40.8500 -74.0500 167° South  Level FlightAware Approximate
Wed 02:56:00 PM 40.8501 -74.0608 271° West  Level Estimated

Login

Don't have an account? Register now (free) for customized features, flight alerts, and more!